createdAt,value
2023-05-18T00:02:55.843Z,3.05
2023-05-18T00:06:18.417Z,2.97
2023-05-18T00:09:41.274Z,3.03
2023-05-18T00:13:04.136Z,2.92
2023-05-18T00:16:27.047Z,3.17
2023-05-18T00:19:49.877Z,2.63
2023-05-18T00:23:12.715Z,2.70
2023-05-18T00:26:35.766Z,3.03
2023-05-18T00:29:58.720Z,2.83
2023-05-18T00:33:21.849Z,2.80
2023-05-18T00:36:44.623Z,2.70
2023-05-18T00:40:07.434Z,2.65
2023-05-18T00:43:30.314Z,3.42
2023-05-18T00:46:53.079Z,2.92
2023-05-18T00:50:15.912Z,3.13
2023-05-18T00:53:38.666Z,2.90
2023-05-18T00:57:01.569Z,2.58
2023-05-18T01:00:24.482Z,2.50
2023-05-18T01:03:47.329Z,2.85
2023-05-18T01:07:09.911Z,2.75
2023-05-18T01:10:32.707Z,2.88
2023-05-18T01:13:55.356Z,3.08
2023-05-18T01:17:18.195Z,3.35
2023-05-18T01:20:41.183Z,2.83
2023-05-18T01:24:03.961Z,3.35
2023-05-18T01:27:26.906Z,3.15
2023-05-18T01:30:49.760Z,2.80
2023-05-18T01:34:12.422Z,2.67
2023-05-18T01:37:35.361Z,3.10
2023-05-18T01:40:58.063Z,2.90
2023-05-18T01:44:20.784Z,2.45
2023-05-18T01:47:43.742Z,3.20
2023-05-18T01:51:06.513Z,2.83
2023-05-18T01:54:29.123Z,3.15
2023-05-18T01:57:51.773Z,2.90
2023-05-18T02:01:14.465Z,2.40
2023-05-18T02:04:37.204Z,2.80
2023-05-18T02:08:00.180Z,2.65
2023-05-18T02:11:23.070Z,2.50
2023-05-18T02:14:45.808Z,2.45
2023-05-18T02:18:09.119Z,2.60
2023-05-18T02:21:31.713Z,2.65
2023-05-18T02:24:53.982Z,2.75
2023-05-18T02:28:16.849Z,2.88
2023-05-18T02:31:39.645Z,2.30
2023-05-18T02:35:02.394Z,2.28
2023-05-18T02:38:25.157Z,2.40
2023-05-18T02:41:47.919Z,2.47
2023-05-18T02:45:10.786Z,2.47
2023-05-18T02:48:33.706Z,2.22
2023-05-18T02:51:56.437Z,2.45
2023-05-18T02:55:19.297Z,2.53
2023-05-18T02:58:42.012Z,2.30
2023-05-18T03:02:05.083Z,3.22
2023-05-18T03:05:28.021Z,2.33
2023-05-18T03:08:50.930Z,2.67
2023-05-18T03:12:13.800Z,2.67
2023-05-18T03:15:36.488Z,2.88
2023-05-18T03:18:59.548Z,2.70
2023-05-18T03:22:22.272Z,2.67
2023-05-18T03:25:45.083Z,2.67
2023-05-18T03:29:07.766Z,3.53
2023-05-18T03:32:30.738Z,3.08
2023-05-18T03:35:53.772Z,2.85
2023-05-18T03:39:16.409Z,2.72
2023-05-18T03:42:39.142Z,2.55
2023-05-18T03:46:01.964Z,2.95
2023-05-18T03:49:24.754Z,2.80
2023-05-18T03:52:47.581Z,2.72
2023-05-18T03:56:10.284Z,2.40
2023-05-18T03:59:32.838Z,2.20
2023-05-18T04:02:55.635Z,2.50
2023-05-18T04:06:18.405Z,2.72
2023-05-18T04:09:41.062Z,2.72
2023-05-18T04:13:03.698Z,3.00
2023-05-18T04:16:26.461Z,2.30
2023-05-18T04:19:49.074Z,2.83
2023-05-18T04:23:11.742Z,2.50
2023-05-18T04:26:34.480Z,2.85
2023-05-18T04:29:57.446Z,2.70
2023-05-18T04:33:20.043Z,2.65
2023-05-18T04:36:42.588Z,2.70
2023-05-18T04:40:05.334Z,2.55
2023-05-18T04:43:28.089Z,2.85
2023-05-18T04:46:50.790Z,3.00
2023-05-18T04:50:13.617Z,3.10
2023-05-18T04:53:36.476Z,2.95
2023-05-18T04:56:59.387Z,2.88
2023-05-18T05:00:22.118Z,3.20
2023-05-18T05:03:45.240Z,2.47
2023-05-18T05:07:07.887Z,3.63
2023-05-18T05:10:30.585Z,3.05
2023-05-18T05:13:53.460Z,3.33
2023-05-18T05:17:16.264Z,2.97
2023-05-18T05:20:39.176Z,3.70
2023-05-18T05:24:02.088Z,3.72
2023-05-18T05:27:24.984Z,3.45
2023-05-18T05:30:47.816Z,3.70
2023-05-18T05:34:10.597Z,4.15
2023-05-18T05:37:33.292Z,3.42
2023-05-18T05:40:56.277Z,3.45
2023-05-18T05:44:19.251Z,4.18
2023-05-18T05:47:42.086Z,4.05
2023-05-18T05:51:04.970Z,3.60
2023-05-18T05:54:27.925Z,3.55
2023-05-18T05:57:50.988Z,3.75
2023-05-18T06:01:13.815Z,4.13
2023-05-18T06:04:36.933Z,4.05
2023-05-18T06:07:59.791Z,3.75
2023-05-18T06:11:22.267Z,3.78
2023-05-18T06:14:45.287Z,4.35
2023-05-18T06:18:08.155Z,3.42
2023-05-18T06:21:31.160Z,3.50
2023-05-18T06:24:54.067Z,3.80
2023-05-18T06:28:16.979Z,3.55
2023-05-18T06:31:39.895Z,3.63
2023-05-18T06:35:02.856Z,3.95
2023-05-18T06:38:25.679Z,4.00
2023-05-18T06:41:48.572Z,4.35
2023-05-18T06:45:11.525Z,3.50
2023-05-18T06:48:34.252Z,3.55
2023-05-18T06:51:56.828Z,4.15
2023-05-18T06:55:19.531Z,3.58
2023-05-18T06:58:42.462Z,3.72
2023-05-18T07:02:05.374Z,4.43
2023-05-18T07:05:28.067Z,3.72
2023-05-18T07:08:50.625Z,3.95
2023-05-18T07:12:13.358Z,3.95
2023-05-18T07:15:36.224Z,3.65
2023-05-18T07:18:59.050Z,3.47
2023-05-18T07:22:21.669Z,3.65
2023-05-18T07:25:44.419Z,3.80
2023-05-18T07:29:07.278Z,3.50
2023-05-18T07:32:30.204Z,3.20
2023-05-18T07:35:53.104Z,3.17
2023-05-18T07:39:16.551Z,3.63
2023-05-18T07:42:40.036Z,3.80
2023-05-18T07:46:02.931Z,3.08
2023-05-18T07:49:25.630Z,3.38
2023-05-18T07:52:48.503Z,3.42
2023-05-18T07:56:11.148Z,3.40
2023-05-18T07:59:33.779Z,4.00
2023-05-18T08:02:56.721Z,3.60
2023-05-18T08:06:19.517Z,3.80
2023-05-18T08:09:42.273Z,3.78
2023-05-18T08:13:04.992Z,3.97
2023-05-18T08:16:27.619Z,3.65
2023-05-18T08:19:50.433Z,4.30
2023-05-18T08:23:13.146Z,4.35
2023-05-18T08:26:36.002Z,4.28
2023-05-18T08:29:58.635Z,4.35
2023-05-18T08:33:21.315Z,4.00
2023-05-18T08:36:44.093Z,4.75
2023-05-18T08:40:06.985Z,4.15
2023-05-18T08:43:30.262Z,3.95
2023-05-18T08:49:57.124Z,4.35
2023-05-18T08:53:19.794Z,4.13
2023-05-18T08:56:42.706Z,4.45
2023-05-18T09:00:05.452Z,4.30
2023-05-18T09:03:28.254Z,4.00
2023-05-18T09:06:51.088Z,4.10
2023-05-18T09:10:13.985Z,5.03
2023-05-18T09:13:36.848Z,4.22
2023-05-18T09:16:59.958Z,3.90
2023-05-18T09:20:22.681Z,3.95
2023-05-18T09:23:45.224Z,3.55
2023-05-18T09:27:08.090Z,3.53
2023-05-18T09:30:30.929Z,3.80
2023-05-18T09:36:57.958Z,4.13
2023-05-18T09:40:21.032Z,4.43
2023-05-18T09:43:44.234Z,4.10
2023-05-18T09:47:07.100Z,3.40
2023-05-18T09:50:29.875Z,3.67
2023-05-18T09:53:52.422Z,3.33
2023-05-18T09:57:14.973Z,3.97
2023-05-18T10:00:37.701Z,2.95
2023-05-18T10:04:00.645Z,3.55
2023-05-18T10:07:23.494Z,3.10
2023-05-18T10:10:46.498Z,3.40
2023-05-18T10:14:09.382Z,3.45
2023-05-18T10:17:32.151Z,3.53
2023-05-18T10:20:54.886Z,4.00
2023-05-18T10:27:22.347Z,3.58
2023-05-18T10:30:45.079Z,3.20
2023-05-18T10:34:07.877Z,3.80
2023-05-18T10:37:30.769Z,3.15
2023-05-18T10:40:53.772Z,3.40
2023-05-18T10:44:16.633Z,2.95
2023-05-18T10:47:39.809Z,3.10
2023-05-18T10:51:02.950Z,3.65
2023-05-18T10:54:25.921Z,2.95
2023-05-18T10:57:48.800Z,3.13
2023-05-18T11:01:11.684Z,3.17
2023-05-18T11:04:34.378Z,2.63
2023-05-18T11:07:56.715Z,2.38
2023-05-18T11:11:19.858Z,3.15
2023-05-18T11:14:42.838Z,2.83
2023-05-18T11:18:05.822Z,2.78
2023-05-18T11:21:28.415Z,2.42
2023-05-18T11:24:51.003Z,2.83
2023-05-18T11:28:13.865Z,2.90
2023-05-18T11:35:47.032Z,2.33
2023-05-18T11:39:09.777Z,2.35
2023-05-18T11:42:32.272Z,2.83
2023-05-18T11:45:55.785Z,2.58
2023-05-18T11:49:20.298Z,2.50
2023-05-18T11:52:43.004Z,2.50
2023-05-18T11:56:05.767Z,2.83
2023-05-18T11:59:28.524Z,2.38
2023-05-18T12:02:51.293Z,2.75
2023-05-18T12:06:13.917Z,3.08
2023-05-18T12:09:36.818Z,2.60
2023-05-18T12:12:59.327Z,2.60
2023-05-18T12:16:22.138Z,2.85
2023-05-18T12:19:44.832Z,2.65
2023-05-18T12:23:07.778Z,2.72
2023-05-18T12:26:30.199Z,2.80
2023-05-18T12:34:10.148Z,3.55
2023-05-18T12:40:37.057Z,2.03
2023-05-18T12:43:59.749Z,2.13
2023-05-18T12:47:22.326Z,2.20
2023-05-18T12:50:46.254Z,2.22
2023-05-18T12:54:09.284Z,2.63
2023-05-18T12:57:32.081Z,2.90
2023-05-18T13:00:54.569Z,2.42
2023-05-18T13:04:17.595Z,2.53
2023-05-18T13:07:40.283Z,2.50
2023-05-18T13:11:12.672Z,2.47
2023-05-18T13:14:37.349Z,2.03
2023-05-18T13:18:00.100Z,2.42
2023-05-18T13:21:22.824Z,2.17
2023-05-18T13:24:45.627Z,2.40
2023-05-18T13:28:08.102Z,1.95
2023-05-18T13:31:31.199Z,2.35
2023-05-18T13:34:54.144Z,2.30
2023-05-18T13:38:17.079Z,2.20
2023-05-18T13:41:40.044Z,2.08
2023-05-18T13:45:02.638Z,2.65
2023-05-18T13:48:25.495Z,2.22
2023-05-18T13:51:48.329Z,1.92
2023-05-18T13:55:12.509Z,2.20
2023-05-18T13:58:35.361Z,2.25
2023-05-18T14:01:58.152Z,1.65
2023-05-18T14:05:20.893Z,2.30
2023-05-18T14:08:43.905Z,2.08
2023-05-18T14:12:06.885Z,2.10
2023-05-18T14:15:29.539Z,2.13
2023-05-18T14:18:52.628Z,5.03
2023-05-18T14:25:19.145Z,2.05
2023-05-18T14:28:41.964Z,1.70
2023-05-18T14:32:04.840Z,1.67
2023-05-18T14:35:27.608Z,1.90
2023-05-18T14:38:51.349Z,2.05
2023-05-18T14:42:14.020Z,2.30
2023-05-18T14:45:36.946Z,1.60
2023-05-18T14:48:59.857Z,1.70
2023-05-18T14:52:22.860Z,1.70
2023-05-18T14:55:45.705Z,1.70
2023-05-18T15:02:12.718Z,2.30
2023-05-18T15:05:35.440Z,2.05
2023-05-18T15:08:58.483Z,1.98
2023-05-18T15:15:26.644Z,2.20
2023-05-18T15:18:49.907Z,1.73
2023-05-18T15:22:12.557Z,1.67
2023-05-18T15:25:35.563Z,2.50
2023-05-18T15:28:58.499Z,2.03
2023-05-18T15:35:25.071Z,1.85
2023-05-18T15:38:48.141Z,1.90
2023-05-18T15:45:14.716Z,1.92
2023-05-18T15:48:37.461Z,1.80
2023-05-18T15:52:00.171Z,1.90
2023-05-18T15:55:23.218Z,2.17
2023-05-18T15:58:46.072Z,2.00
2023-05-18T16:02:08.780Z,2.00
2023-05-18T16:05:31.425Z,2.10
2023-05-18T16:08:54.436Z,2.00
2023-05-18T16:12:17.122Z,2.08
2023-05-18T16:15:39.895Z,2.20
2023-05-18T16:19:02.646Z,2.25
2023-05-18T16:22:25.361Z,2.40
2023-05-18T16:25:48.052Z,2.20
2023-05-18T16:29:10.724Z,2.20
2023-05-18T16:32:33.587Z,2.53
2023-05-18T16:35:56.242Z,2.20
2023-05-18T16:39:19.090Z,2.03
2023-05-18T16:42:41.897Z,2.50
2023-05-18T16:46:04.760Z,2.50
2023-05-18T16:49:27.315Z,3.40
2023-05-18T16:52:49.857Z,4.97
2023-05-18T16:56:12.649Z,2.70
2023-05-18T16:59:35.258Z,3.60
2023-05-18T17:02:58.226Z,3.05
2023-05-18T17:06:21.088Z,2.92
2023-05-18T17:09:43.898Z,2.78
2023-05-18T17:13:06.484Z,2.30
2023-05-18T17:16:29.504Z,2.22
2023-05-18T17:19:52.080Z,2.55
2023-05-18T17:23:14.849Z,2.72
2023-05-18T17:26:37.762Z,2.38
2023-05-18T17:30:00.552Z,2.50
2023-05-18T17:33:23.297Z,2.85
2023-05-18T17:36:45.998Z,2.85
2023-05-18T17:40:08.813Z,2.63
2023-05-18T17:43:31.663Z,2.72
2023-05-18T17:46:54.557Z,2.80
2023-05-18T17:50:17.453Z,2.10
2023-05-18T17:53:40.130Z,3.40
2023-05-18T17:57:02.975Z,2.38
2023-05-18T18:00:25.937Z,2.58
2023-05-18T18:03:48.920Z,2.90
2023-05-18T18:07:11.899Z,2.63
2023-05-18T18:10:34.871Z,2.70
2023-05-18T18:13:57.448Z,2.35
2023-05-18T18:17:20.450Z,2.22
2023-05-18T18:20:43.246Z,2.50
2023-05-18T18:26:05.352Z,3.00
2023-05-18T18:29:28.012Z,2.05
2023-05-18T18:32:50.903Z,2.47
2023-05-18T18:36:13.573Z,2.30
2023-05-18T18:39:36.276Z,2.15
2023-05-18T18:42:59.140Z,2.65
2023-05-18T18:46:21.866Z,2.75
2023-05-18T18:49:44.515Z,2.67
2023-05-18T18:53:07.195Z,2.85
2023-05-18T18:56:29.934Z,2.50
2023-05-18T18:59:52.782Z,2.45
2023-05-18T19:03:15.615Z,2.50
2023-05-18T19:06:38.155Z,2.85
2023-05-18T19:10:00.948Z,2.35
2023-05-18T19:13:23.734Z,2.22
2023-05-18T19:16:46.739Z,2.40
2023-05-18T19:20:09.830Z,2.42
2023-05-18T19:26:36.678Z,2.35
2023-05-18T19:30:01.761Z,2.40
2023-05-18T19:33:25.293Z,2.50
2023-05-18T19:36:48.115Z,2.35
2023-05-18T19:40:10.769Z,2.30
2023-05-18T19:43:33.452Z,2.20
2023-05-18T19:46:56.357Z,2.17
2023-05-18T19:50:19.327Z,1.85
2023-05-18T19:53:42.149Z,2.63
2023-05-18T19:57:05.040Z,2.33
2023-05-18T20:00:28.101Z,2.35
2023-05-18T20:03:50.767Z,2.97
2023-05-18T20:07:13.380Z,2.90
2023-05-18T20:10:36.052Z,2.20
2023-05-18T20:13:58.950Z,2.35
2023-05-18T20:17:21.794Z,2.05
2023-05-18T20:20:44.629Z,2.53
2023-05-18T20:24:07.469Z,2.38
2023-05-18T20:27:30.383Z,2.60
2023-05-18T20:30:53.272Z,2.70
2023-05-18T20:34:16.048Z,2.38
2023-05-18T20:37:38.691Z,2.20
2023-05-18T20:41:01.251Z,2.78
2023-05-18T20:44:24.142Z,2.38
2023-05-18T20:47:46.947Z,2.00
2023-05-18T20:51:09.886Z,2.38
2023-05-18T20:54:32.743Z,2.58
2023-05-18T20:57:55.519Z,2.63
2023-05-18T21:01:18.500Z,2.42
2023-05-18T21:04:41.699Z,2.78
2023-05-18T21:08:04.643Z,2.50
2023-05-18T21:11:27.204Z,2.50
2023-05-18T21:14:50.034Z,2.55
2023-05-18T21:18:12.967Z,2.30
2023-05-18T21:21:35.854Z,2.85
2023-05-18T21:24:58.599Z,2.65
2023-05-18T21:28:21.331Z,2.80
2023-05-18T21:31:44.283Z,2.92
2023-05-18T21:35:07.068Z,2.60
2023-05-18T21:38:30.027Z,2.90
2023-05-18T21:41:52.864Z,3.22
2023-05-18T21:45:15.512Z,2.72
2023-05-18T21:48:38.291Z,2.40
2023-05-18T21:52:01.205Z,2.40
2023-05-18T21:55:24.129Z,2.17
2023-05-18T21:58:46.794Z,2.40
2023-05-18T22:02:09.621Z,3.00
2023-05-18T22:05:32.638Z,2.50
2023-05-18T22:08:55.395Z,2.95
2023-05-18T22:12:18.366Z,2.35
2023-05-18T22:15:41.268Z,2.50
2023-05-18T22:19:04.040Z,2.63
2023-05-18T22:22:30.643Z,2.47
2023-05-18T22:25:53.690Z,3.08
2023-05-18T22:29:16.703Z,2.30
2023-05-18T22:32:39.657Z,2.72
2023-05-18T22:36:02.349Z,2.72
2023-05-18T22:39:25.042Z,2.58
2023-05-18T22:42:47.855Z,2.47
2023-05-18T22:46:10.756Z,2.90
2023-05-18T22:49:33.479Z,2.63
2023-05-18T22:52:56.429Z,2.60
2023-05-18T22:56:19.181Z,2.90
2023-05-18T22:59:41.988Z,2.67
2023-05-18T23:03:04.881Z,2.92
2023-05-18T23:06:27.474Z,2.92
2023-05-18T23:09:50.371Z,2.70
2023-05-18T23:13:13.791Z,2.95
2023-05-18T23:19:40.256Z,3.47
2023-05-18T23:23:03.257Z,3.50
2023-05-18T23:26:25.869Z,3.05
2023-05-18T23:29:48.683Z,3.08
2023-05-18T23:33:13.268Z,2.88
2023-05-18T23:36:35.996Z,3.40
2023-05-18T23:39:58.888Z,2.83
2023-05-18T23:43:21.625Z,2.83
2023-05-18T23:46:44.286Z,2.92
2023-05-18T23:50:07.105Z,3.30
2023-05-18T23:53:30.043Z,2.78
2023-05-18T23:56:52.706Z,3.33
